sensor_id;sensor_type;location;lat;lon;timestamp;temperature;humidity
21169;DHT22;10742;51.816;8.662;2023-04-29T00:02:16;17.60;93.00
21169;DHT22;10742;51.816;8.662;2023-04-29T00:05:20;17.60;92.90
21169;DHT22;10742;51.816;8.662;2023-04-29T00:08:27;17.60;92.80
21169;DHT22;10742;51.816;8.662;2023-04-29T00:11:43;17.60;92.80
21169;DHT22;10742;51.816;8.662;2023-04-29T00:15:03;17.50;92.80
21169;DHT22;10742;51.816;8.662;2023-04-29T00:18:11;17.50;92.70
21169;DHT22;10742;51.816;8.662;2023-04-29T00:21:16;17.50;92.70
21169;DHT22;10742;51.816;8.662;2023-04-29T00:24:25;17.40;92.60
21169;DHT22;10742;51.816;8.662;2023-04-29T00:27:29;17.40;92.70
21169;DHT22;10742;51.816;8.662;2023-04-29T00:30:33;17.40;92.70
21169;DHT22;10742;51.816;8.662;2023-04-29T00:33:37;17.40;92.70
21169;DHT22;10742;51.816;8.662;2023-04-29T00:36:53;17.30;92.60
21169;DHT22;10742;51.816;8.662;2023-04-29T00:39:56;17.30;92.60
21169;DHT22;10742;51.816;8.662;2023-04-29T00:42:58;17.30;92.60
21169;DHT22;10742;51.816;8.662;2023-04-29T00:46:01;17.30;92.60
21169;DHT22;10742;51.816;8.662;2023-04-29T00:49:03;17.20;92.50
21169;DHT22;10742;51.816;8.662;2023-04-29T00:52:07;17.20;92.60
21169;DHT22;10742;51.816;8.662;2023-04-29T00:55:11;17.20;92.60
21169;DHT22;10742;51.816;8.662;2023-04-29T00:58:14;17.10;92.60
21169;DHT22;10742;51.816;8.662;2023-04-29T01:01:19;17.10;92.70
21169;DHT22;10742;51.816;8.662;2023-04-29T01:04:23;17.10;92.70
21169;DHT22;10742;51.816;8.662;2023-04-29T01:11:08;17.00;93.30
21169;DHT22;10742;51.816;8.662;2023-04-29T01:14:13;16.90;93.20
21169;DHT22;10742;51.816;8.662;2023-04-29T01:17:18;16.90;93.00
21169;DHT22;10742;51.816;8.662;2023-04-29T01:20:23;16.90;93.00
21169;DHT22;10742;51.816;8.662;2023-04-29T01:23:28;16.80;93.00
21169;DHT22;10742;51.816;8.662;2023-04-29T01:26:31;16.80;93.00
21169;DHT22;10742;51.816;8.662;2023-04-29T01:30:05;16.80;93.10
21169;DHT22;10742;51.816;8.662;2023-04-29T01:36:52;16.70;93.20
21169;DHT22;10742;51.816;8.662;2023-04-29T01:40:28;16.70;93.50
21169;DHT22;10742;51.816;8.662;2023-04-29T01:43:42;16.60;93.50
21169;DHT22;10742;51.816;8.662;2023-04-29T01:46:55;16.60;93.20
21169;DHT22;10742;51.816;8.662;2023-04-29T01:50:05;16.60;93.20
21169;DHT22;10742;51.816;8.662;2023-04-29T01:53:09;16.60;93.20
21169;DHT22;10742;51.816;8.662;2023-04-29T01:56:12;16.60;93.20
21169;DHT22;10742;51.816;8.662;2023-04-29T01:59:31;16.50;93.20
21169;DHT22;10742;51.816;8.662;2023-04-29T02:03:00;16.50;93.20
21169;DHT22;10742;51.816;8.662;2023-04-29T02:06:10;16.40;93.20
21169;DHT22;10742;51.816;8.662;2023-04-29T02:09:12;16.40;93.20
21169;DHT22;10742;51.816;8.662;2023-04-29T02:12:22;16.40;93.30
21169;DHT22;10742;51.816;8.662;2023-04-29T02:15:26;16.30;93.40
21169;DHT22;10742;51.816;8.662;2023-04-29T02:18:29;16.30;93.40
21169;DHT22;10742;51.816;8.662;2023-04-29T02:21:32;16.30;93.40
21169;DHT22;10742;51.816;8.662;2023-04-29T02:24:36;16.20;93.30
21169;DHT22;10742;51.816;8.662;2023-04-29T02:27:41;16.20;93.40
21169;DHT22;10742;51.816;8.662;2023-04-29T02:30:44;16.20;93.40
21169;DHT22;10742;51.816;8.662;2023-04-29T02:33:46;16.20;93.50
21169;DHT22;10742;51.816;8.662;2023-04-29T02:36:49;16.10;93.40
21169;DHT22;10742;51.816;8.662;2023-04-29T02:39:55;16.10;93.50
21169;DHT22;10742;51.816;8.662;2023-04-29T02:42:58;16.10;93.40
21169;DHT22;10742;51.816;8.662;2023-04-29T02:46:02;16.10;93.40
21169;DHT22;10742;51.816;8.662;2023-04-29T02:49:05;16.00;93.40
21169;DHT22;10742;51.816;8.662;2023-04-29T02:52:09;16.00;93.30
21169;DHT22;10742;51.816;8.662;2023-04-29T02:55:11;16.00;93.30
21169;DHT22;10742;51.816;8.662;2023-04-29T02:58:14;15.90;93.40
21169;DHT22;10742;51.816;8.662;2023-04-29T03:01:16;15.90;93.40
21169;DHT22;10742;51.816;8.662;2023-04-29T03:04:19;15.90;93.40
21169;DHT22;10742;51.816;8.662;2023-04-29T03:07:22;15.80;93.50
21169;DHT22;10742;51.816;8.662;2023-04-29T03:10:26;15.80;93.50
21169;DHT22;10742;51.816;8.662;2023-04-29T03:13:29;15.70;93.40
21169;DHT22;10742;51.816;8.662;2023-04-29T03:16:32;15.70;93.40
21169;DHT22;10742;51.816;8.662;2023-04-29T03:19:34;15.70;93.60
21169;DHT22;10742;51.816;8.662;2023-04-29T03:22:38;15.60;93.60
21169;DHT22;10742;51.816;8.662;2023-04-29T03:25:40;15.60;93.60
21169;DHT22;10742;51.816;8.662;2023-04-29T03:28:43;15.50;93.70
21169;DHT22;10742;51.816;8.662;2023-04-29T03:31:46;15.50;93.70
21169;DHT22;10742;51.816;8.662;2023-04-29T03:34:49;15.50;93.80
21169;DHT22;10742;51.816;8.662;2023-04-29T03:38:02;15.50;93.80
21169;DHT22;10742;51.816;8.662;2023-04-29T03:41:08;15.40;93.80
21169;DHT22;10742;51.816;8.662;2023-04-29T03:44:11;15.40;93.80
21169;DHT22;10742;51.816;8.662;2023-04-29T03:47:14;15.40;93.90
21169;DHT22;10742;51.816;8.662;2023-04-29T03:50:16;15.40;93.90
21169;DHT22;10742;51.816;8.662;2023-04-29T03:53:19;15.40;94.00
21169;DHT22;10742;51.816;8.662;2023-04-29T03:56:23;15.30;94.00
21169;DHT22;10742;51.816;8.662;2023-04-29T03:59:29;15.40;94.10
21169;DHT22;10742;51.816;8.662;2023-04-29T04:02:32;15.30;94.10
21169;DHT22;10742;51.816;8.662;2023-04-29T04:05:35;15.30;94.20
21169;DHT22;10742;51.816;8.662;2023-04-29T04:08:42;15.30;94.30
21169;DHT22;10742;51.816;8.662;2023-04-29T04:12:11;15.30;94.30
21169;DHT22;10742;51.816;8.662;2023-04-29T04:15:14;15.30;94.30
21169;DHT22;10742;51.816;8.662;2023-04-29T04:18:17;15.30;94.50
21169;DHT22;10742;51.816;8.662;2023-04-29T04:21:20;15.30;94.50
21169;DHT22;10742;51.816;8.662;2023-04-29T04:24:31;15.30;94.50
21169;DHT22;10742;51.816;8.662;2023-04-29T04:27:34;15.30;94.50
21169;DHT22;10742;51.816;8.662;2023-04-29T04:30:41;15.30;94.60
21169;DHT22;10742;51.816;8.662;2023-04-29T04:33:44;15.30;94.60
21169;DHT22;10742;51.816;8.662;2023-04-29T04:36:47;15.30;94.60
21169;DHT22;10742;51.816;8.662;2023-04-29T04:39:50;15.30;94.60
21169;DHT22;10742;51.816;8.662;2023-04-29T04:42:53;15.30;94.70
21169;DHT22;10742;51.816;8.662;2023-04-29T04:45:57;15.20;94.70
21169;DHT22;10742;51.816;8.662;2023-04-29T04:49:00;15.30;94.80
21169;DHT22;10742;51.816;8.662;2023-04-29T04:52:06;15.30;94.80
21169;DHT22;10742;51.816;8.662;2023-04-29T04:55:09;15.30;94.80
21169;DHT22;10742;51.816;8.662;2023-04-29T04:58:17;15.20;94.90
21169;DHT22;10742;51.816;8.662;2023-04-29T05:01:22;15.30;94.90
21169;DHT22;10742;51.816;8.662;2023-04-29T05:04:24;15.30;94.90
21169;DHT22;10742;51.816;8.662;2023-04-29T05:07:28;15.30;95.00
21169;DHT22;10742;51.816;8.662;2023-04-29T05:10:37;15.30;95.00
21169;DHT22;10742;51.816;8.662;2023-04-29T05:13:41;15.30;95.00
21169;DHT22;10742;51.816;8.662;2023-04-29T05:16:45;15.30;95.00
21169;DHT22;10742;51.816;8.662;2023-04-29T05:19:47;15.30;95.00
21169;DHT22;10742;51.816;8.662;2023-04-29T05:22:50;15.30;95.00
21169;DHT22;10742;51.816;8.662;2023-04-29T05:25:54;15.30;95.00
21169;DHT22;10742;51.816;8.662;2023-04-29T05:28:57;15.30;95.00
21169;DHT22;10742;51.816;8.662;2023-04-29T05:32:03;15.30;95.00
21169;DHT22;10742;51.816;8.662;2023-04-29T05:35:07;15.30;95.00
21169;DHT22;10742;51.816;8.662;2023-04-29T05:38:10;15.20;95.00
21169;DHT22;10742;51.816;8.662;2023-04-29T05:41:22;15.20;95.10
21169;DHT22;10742;51.816;8.662;2023-04-29T05:44:46;15.20;95.10
21169;DHT22;10742;51.816;8.662;2023-04-29T05:47:48;15.20;95.20
21169;DHT22;10742;51.816;8.662;2023-04-29T05:50:51;15.20;95.20
21169;DHT22;10742;51.816;8.662;2023-04-29T05:53:55;15.20;95.30
21169;DHT22;10742;51.816;8.662;2023-04-29T05:56:59;15.20;95.30
21169;DHT22;10742;51.816;8.662;2023-04-29T06:00:03;15.20;95.50
21169;DHT22;10742;51.816;8.662;2023-04-29T06:03:14;15.20;95.50
21169;DHT22;10742;51.816;8.662;2023-04-29T06:06:18;15.20;95.40
21169;DHT22;10742;51.816;8.662;2023-04-29T06:09:35;15.20;95.50
21169;DHT22;10742;51.816;8.662;2023-04-29T06:12:38;15.20;95.50
21169;DHT22;10742;51.816;8.662;2023-04-29T06:15:40;15.20;95.50
21169;DHT22;10742;51.816;8.662;2023-04-29T06:18:43;15.20;95.60
21169;DHT22;10742;51.816;8.662;2023-04-29T06:21:48;15.20;95.50
21169;DHT22;10742;51.816;8.662;2023-04-29T06:24:50;15.20;95.60
21169;DHT22;10742;51.816;8.662;2023-04-29T06:28:01;15.20;95.60
21169;DHT22;10742;51.816;8.662;2023-04-29T06:31:05;15.20;95.60
21169;DHT22;10742;51.816;8.662;2023-04-29T06:34:09;15.20;95.60
21169;DHT22;10742;51.816;8.662;2023-04-29T06:37:22;15.20;95.70
21169;DHT22;10742;51.816;8.662;2023-04-29T06:40:34;15.20;95.80
21169;DHT22;10742;51.816;8.662;2023-04-29T06:43:55;15.20;95.80
21169;DHT22;10742;51.816;8.662;2023-04-29T06:47:16;15.20;96.00
21169;DHT22;10742;51.816;8.662;2023-04-29T06:50:28;15.30;96.20
21169;DHT22;10742;51.816;8.662;2023-04-29T06:53:32;15.40;96.10
21169;DHT22;10742;51.816;8.662;2023-04-29T06:56:35;15.50;95.90
21169;DHT22;10742;51.816;8.662;2023-04-29T06:59:38;15.50;95.70
21169;DHT22;10742;51.816;8.662;2023-04-29T07:02:40;15.50;95.50
21169;DHT22;10742;51.816;8.662;2023-04-29T07:05:43;15.60;95.50
21169;DHT22;10742;51.816;8.662;2023-04-29T07:08:49;15.60;95.50
21169;DHT22;10742;51.816;8.662;2023-04-29T07:11:53;15.60;95.50
21169;DHT22;10742;51.816;8.662;2023-04-29T07:14:56;15.60;95.50
21169;DHT22;10742;51.816;8.662;2023-04-29T07:17:59;15.60;95.40
21169;DHT22;10742;51.816;8.662;2023-04-29T07:21:02;15.60;95.50
21169;DHT22;10742;51.816;8.662;2023-04-29T07:24:05;15.60;95.40
21169;DHT22;10742;51.816;8.662;2023-04-29T07:27:07;15.60;95.40
21169;DHT22;10742;51.816;8.662;2023-04-29T07:30:10;15.60;95.40
21169;DHT22;10742;51.816;8.662;2023-04-29T07:33:13;15.70;95.50
21169;DHT22;10742;51.816;8.662;2023-04-29T07:36:16;15.70;95.50
21169;DHT22;10742;51.816;8.662;2023-04-29T07:39:20;15.70;95.50
21169;DHT22;10742;51.816;8.662;2023-04-29T07:42:27;15.70;95.30
21169;DHT22;10742;51.816;8.662;2023-04-29T07:45:30;15.70;95.30
21169;DHT22;10742;51.816;8.662;2023-04-29T07:48:39;15.80;95.40
21169;DHT22;10742;51.816;8.662;2023-04-29T07:51:42;15.70;95.30
21169;DHT22;10742;51.816;8.662;2023-04-29T07:54:45;15.80;95.30
21169;DHT22;10742;51.816;8.662;2023-04-29T07:57:47;15.80;95.30
21169;DHT22;10742;51.816;8.662;2023-04-29T08:00:50;15.80;95.30
21169;DHT22;10742;51.816;8.662;2023-04-29T08:03:53;15.80;95.30
21169;DHT22;10742;51.816;8.662;2023-04-29T08:06:57;15.80;95.20
21169;DHT22;10742;51.816;8.662;2023-04-29T08:10:00;15.90;95.20
21169;DHT22;10742;51.816;8.662;2023-04-29T08:13:03;15.90;95.30
21169;DHT22;10742;51.816;8.662;2023-04-29T08:16:05;15.90;95.20
21169;DHT22;10742;51.816;8.662;2023-04-29T08:19:08;16.00;95.30
21169;DHT22;10742;51.816;8.662;2023-04-29T08:22:11;16.00;95.30
21169;DHT22;10742;51.816;8.662;2023-04-29T08:25:15;16.00;95.10
21169;DHT22;10742;51.816;8.662;2023-04-29T08:28:18;16.10;95.00
21169;DHT22;10742;51.816;8.662;2023-04-29T08:31:21;16.10;94.90
21169;DHT22;10742;51.816;8.662;2023-04-29T08:34:23;16.10;94.90
21169;DHT22;10742;51.816;8.662;2023-04-29T08:37:26;16.20;95.00
21169;DHT22;10742;51.816;8.662;2023-04-29T08:40:29;16.20;95.10
21169;DHT22;10742;51.816;8.662;2023-04-29T08:43:34;16.30;95.00
21169;DHT22;10742;51.816;8.662;2023-04-29T08:46:39;16.30;94.80
21169;DHT22;10742;51.816;8.662;2023-04-29T08:49:41;16.40;94.60
21169;DHT22;10742;51.816;8.662;2023-04-29T08:52:46;16.40;94.70
21169;DHT22;10742;51.816;8.662;2023-04-29T08:55:54;16.50;94.70
21169;DHT22;10742;51.816;8.662;2023-04-29T08:59:09;16.50;94.30
21169;DHT22;10742;51.816;8.662;2023-04-29T09:02:56;16.60;94.10
21169;DHT22;10742;51.816;8.662;2023-04-29T09:06:02;16.70;93.70
21169;DHT22;10742;51.816;8.662;2023-04-29T09:09:06;16.60;93.70
21169;DHT22;10742;51.816;8.662;2023-04-29T09:12:08;16.60;93.70
21169;DHT22;10742;51.816;8.662;2023-04-29T09:15:11;16.70;93.60
21169;DHT22;10742;51.816;8.662;2023-04-29T09:18:50;16.70;93.80
21169;DHT22;10742;51.816;8.662;2023-04-29T09:21:54;16.70;93.20
21169;DHT22;10742;51.816;8.662;2023-04-29T09:25:11;16.80;93.30
21169;DHT22;10742;51.816;8.662;2023-04-29T09:28:16;16.80;92.70
21169;DHT22;10742;51.816;8.662;2023-04-29T09:31:30;16.80;92.70
21169;DHT22;10742;51.816;8.662;2023-04-29T09:34:35;16.90;92.60
21169;DHT22;10742;51.816;8.662;2023-04-29T09:37:40;16.80;92.20
21169;DHT22;10742;51.816;8.662;2023-04-29T09:40:43;16.80;92.20
21169;DHT22;10742;51.816;8.662;2023-04-29T09:44:05;16.80;92.30
21169;DHT22;10742;51.816;8.662;2023-04-29T09:47:08;16.80;92.30
21169;DHT22;10742;51.816;8.662;2023-04-29T09:50:11;16.80;92.30
21169;DHT22;10742;51.816;8.662;2023-04-29T09:53:28;16.80;92.30
21169;DHT22;10742;51.816;8.662;2023-04-29T09:56:51;16.90;91.90
21169;DHT22;10742;51.816;8.662;2023-04-29T09:59:54;16.90;91.90
21169;DHT22;10742;51.816;8.662;2023-04-29T10:02:58;17.00;92.20
21169;DHT22;10742;51.816;8.662;2023-04-29T10:06:04;17.10;92.10
21169;DHT22;10742;51.816;8.662;2023-04-29T10:09:12;17.20;92.00
21169;DHT22;10742;51.816;8.662;2023-04-29T10:12:18;17.20;91.80
21169;DHT22;10742;51.816;8.662;2023-04-29T10:15:48;17.30;92.00
21169;DHT22;10742;51.816;8.662;2023-04-29T10:18:55;17.30;91.40
21169;DHT22;10742;51.816;8.662;2023-04-29T10:22:02;17.50;91.80
21169;DHT22;10742;51.816;8.662;2023-04-29T10:25:06;17.60;91.60
21169;DHT22;10742;51.816;8.662;2023-04-29T10:28:15;17.70;91.50
21169;DHT22;10742;51.816;8.662;2023-04-29T10:31:19;17.70;91.20
21169;DHT22;10742;51.816;8.662;2023-04-29T10:34:23;17.90;91.40
21169;DHT22;10742;51.816;8.662;2023-04-29T10:37:26;17.90;91.20
21169;DHT22;10742;51.816;8.662;2023-04-29T10:40:48;18.00;91.10
21169;DHT22;10742;51.816;8.662;2023-04-29T10:43:53;18.10;90.40
21169;DHT22;10742;51.816;8.662;2023-04-29T10:47:18;18.10;90.60
21169;DHT22;10742;51.816;8.662;2023-04-29T10:50:21;18.20;90.20
21169;DHT22;10742;51.816;8.662;2023-04-29T10:53:23;18.20;90.60
21169;DHT22;10742;51.816;8.662;2023-04-29T11:02:41;18.40;90.00
21169;DHT22;10742;51.816;8.662;2023-04-29T11:05:44;18.50;89.10
21169;DHT22;10742;51.816;8.662;2023-04-29T11:09:01;18.50;88.10
21169;DHT22;10742;51.816;8.662;2023-04-29T11:12:04;18.40;86.90
21169;DHT22;10742;51.816;8.662;2023-04-29T11:15:09;18.40;87.40
21169;DHT22;10742;51.816;8.662;2023-04-29T11:18:12;18.30;87.40
21169;DHT22;10742;51.816;8.662;2023-04-29T11:21:15;18.30;87.60
21169;DHT22;10742;51.816;8.662;2023-04-29T11:24:18;18.20;87.50
21169;DHT22;10742;51.816;8.662;2023-04-29T11:27:25;18.10;87.60
21169;DHT22;10742;51.816;8.662;2023-04-29T11:30:29;18.10;87.10
21169;DHT22;10742;51.816;8.662;2023-04-29T11:33:32;18.10;87.20
21169;DHT22;10742;51.816;8.662;2023-04-29T11:36:35;18.00;87.50
21169;DHT22;10742;51.816;8.662;2023-04-29T11:39:38;17.90;87.80
21169;DHT22;10742;51.816;8.662;2023-04-29T11:42:45;17.90;87.50
21169;DHT22;10742;51.816;8.662;2023-04-29T11:45:48;17.90;87.50
21169;DHT22;10742;51.816;8.662;2023-04-29T11:48:51;18.00;88.10
21169;DHT22;10742;51.816;8.662;2023-04-29T11:51:54;18.00;88.10
21169;DHT22;10742;51.816;8.662;2023-04-29T11:54:57;18.10;88.40
21169;DHT22;10742;51.816;8.662;2023-04-29T11:58:03;18.20;88.40
21169;DHT22;10742;51.816;8.662;2023-04-29T12:01:07;18.30;86.50
21169;DHT22;10742;51.816;8.662;2023-04-29T12:04:09;18.40;86.40
21169;DHT22;10742;51.816;8.662;2023-04-29T12:07:16;18.40;86.20
21169;DHT22;10742;51.816;8.662;2023-04-29T12:10:19;18.40;86.40
21169;DHT22;10742;51.816;8.662;2023-04-29T12:13:23;18.50;86.70
21169;DHT22;10742;51.816;8.662;2023-04-29T12:16:27;18.60;85.90
21169;DHT22;10742;51.816;8.662;2023-04-29T12:19:31;18.60;85.40
21169;DHT22;10742;51.816;8.662;2023-04-29T12:22:34;18.60;85.00
21169;DHT22;10742;51.816;8.662;2023-04-29T12:25:37;18.60;85.00
21169;DHT22;10742;51.816;8.662;2023-04-29T12:28:40;18.60;85.00
21169;DHT22;10742;51.816;8.662;2023-04-29T12:31:46;18.70;84.60
21169;DHT22;10742;51.816;8.662;2023-04-29T12:34:50;18.70;84.90
21169;DHT22;10742;51.816;8.662;2023-04-29T12:37:57;18.80;85.70
21169;DHT22;10742;51.816;8.662;2023-04-29T12:41:00;18.80;84.90
21169;DHT22;10742;51.816;8.662;2023-04-29T12:44:04;18.90;84.20
21169;DHT22;10742;51.816;8.662;2023-04-29T12:47:08;18.90;83.50
21169;DHT22;10742;51.816;8.662;2023-04-29T12:50:11;18.90;83.40
21169;DHT22;10742;51.816;8.662;2023-04-29T12:53:14;19.00;83.50
21169;DHT22;10742;51.816;8.662;2023-04-29T12:56:17;19.00;83.50
21169;DHT22;10742;51.816;8.662;2023-04-29T12:59:19;19.10;83.10
21169;DHT22;10742;51.816;8.662;2023-04-29T13:02:22;19.10;82.90
21169;DHT22;10742;51.816;8.662;2023-04-29T13:05:24;19.20;82.80
21169;DHT22;10742;51.816;8.662;2023-04-29T13:08:27;19.30;82.70
21169;DHT22;10742;51.816;8.662;2023-04-29T13:11:29;19.30;82.30
21169;DHT22;10742;51.816;8.662;2023-04-29T13:14:35;19.30;81.60
21169;DHT22;10742;51.816;8.662;2023-04-29T13:17:37;19.30;81.50
21169;DHT22;10742;51.816;8.662;2023-04-29T13:20:40;19.30;80.90
21169;DHT22;10742;51.816;8.662;2023-04-29T13:23:43;19.30;81.40
21169;DHT22;10742;51.816;8.662;2023-04-29T13:26:46;19.40;81.60
21169;DHT22;10742;51.816;8.662;2023-04-29T13:29:50;19.40;81.40
21169;DHT22;10742;51.816;8.662;2023-04-29T13:32:52;19.50;81.10
21169;DHT22;10742;51.816;8.662;2023-04-29T13:35:56;19.50;80.50
21169;DHT22;10742;51.816;8.662;2023-04-29T13:38:58;19.50;80.50
21169;DHT22;10742;51.816;8.662;2023-04-29T13:42:01;19.50;79.70
21169;DHT22;10742;51.816;8.662;2023-04-29T13:45:05;19.50;79.00
21169;DHT22;10742;51.816;8.662;2023-04-29T13:48:08;19.40;78.50
21169;DHT22;10742;51.816;8.662;2023-04-29T13:51:21;19.30;78.40
21169;DHT22;10742;51.816;8.662;2023-04-29T13:54:44;19.30;79.00
21169;DHT22;10742;51.816;8.662;2023-04-29T13:57:51;19.30;78.90
21169;DHT22;10742;51.816;8.662;2023-04-29T14:01:14;19.20;78.70
21169;DHT22;10742;51.816;8.662;2023-04-29T14:04:28;19.20;78.50
21169;DHT22;10742;51.816;8.662;2023-04-29T14:07:31;19.20;78.20
21169;DHT22;10742;51.816;8.662;2023-04-29T14:10:33;19.20;79.00
21169;DHT22;10742;51.816;8.662;2023-04-29T14:13:38;19.20;79.30
21169;DHT22;10742;51.816;8.662;2023-04-29T14:16:41;19.20;79.30
21169;DHT22;10742;51.816;8.662;2023-04-29T14:19:43;19.30;79.30
21169;DHT22;10742;51.816;8.662;2023-04-29T14:22:46;19.40;78.70
21169;DHT22;10742;51.816;8.662;2023-04-29T14:25:49;19.40;78.20
21169;DHT22;10742;51.816;8.662;2023-04-29T14:28:51;19.40;77.90
21169;DHT22;10742;51.816;8.662;2023-04-29T14:32:00;19.50;77.90
21169;DHT22;10742;51.816;8.662;2023-04-29T14:35:03;19.50;78.10
21169;DHT22;10742;51.816;8.662;2023-04-29T14:38:06;19.50;77.60
21169;DHT22;10742;51.816;8.662;2023-04-29T14:41:08;19.50;77.00
21169;DHT22;10742;51.816;8.662;2023-04-29T14:44:11;19.50;77.10
21169;DHT22;10742;51.816;8.662;2023-04-29T14:47:14;19.50;76.90
21169;DHT22;10742;51.816;8.662;2023-04-29T14:50:16;19.40;76.60
21169;DHT22;10742;51.816;8.662;2023-04-29T14:53:19;19.40;76.80
21169;DHT22;10742;51.816;8.662;2023-04-29T14:56:23;19.40;77.30
21169;DHT22;10742;51.816;8.662;2023-04-29T14:59:25;19.50;77.00
21169;DHT22;10742;51.816;8.662;2023-04-29T15:02:29;19.50;77.00
21169;DHT22;10742;51.816;8.662;2023-04-29T15:05:32;19.50;76.70
21169;DHT22;10742;51.816;8.662;2023-04-29T15:08:35;19.50;76.30
21169;DHT22;10742;51.816;8.662;2023-04-29T15:11:39;19.50;76.10
21169;DHT22;10742;51.816;8.662;2023-04-29T15:14:42;19.50;76.20
21169;DHT22;10742;51.816;8.662;2023-04-29T15:17:44;19.50;76.60
21169;DHT22;10742;51.816;8.662;2023-04-29T15:20:47;19.50;76.70
21169;DHT22;10742;51.816;8.662;2023-04-29T15:23:49;19.50;76.10
21169;DHT22;10742;51.816;8.662;2023-04-29T15:26:52;19.50;76.10
21169;DHT22;10742;51.816;8.662;2023-04-29T15:29:55;19.50;76.40
21169;DHT22;10742;51.816;8.662;2023-04-29T15:32:58;19.50;76.30
21169;DHT22;10742;51.816;8.662;2023-04-29T15:36:01;19.60;76.30
21169;DHT22;10742;51.816;8.662;2023-04-29T15:39:04;19.60;76.10
21169;DHT22;10742;51.816;8.662;2023-04-29T15:42:07;19.60;75.50
21169;DHT22;10742;51.816;8.662;2023-04-29T15:45:10;19.70;75.70
21169;DHT22;10742;51.816;8.662;2023-04-29T15:48:13;19.70;75.70
21169;DHT22;10742;51.816;8.662;2023-04-29T15:51:15;19.80;75.50
21169;DHT22;10742;51.816;8.662;2023-04-29T15:54:18;19.80;75.60
21169;DHT22;10742;51.816;8.662;2023-04-29T15:57:20;19.80;75.20
21169;DHT22;10742;51.816;8.662;2023-04-29T16:00:23;19.80;75.30
21169;DHT22;10742;51.816;8.662;2023-04-29T16:03:26;19.80;75.10
21169;DHT22;10742;51.816;8.662;2023-04-29T16:06:29;19.80;74.90
21169;DHT22;10742;51.816;8.662;2023-04-29T16:09:33;19.70;74.90
21169;DHT22;10742;51.816;8.662;2023-04-29T16:12:35;19.70;74.90
21169;DHT22;10742;51.816;8.662;2023-04-29T16:15:38;19.70;74.80
21169;DHT22;10742;51.816;8.662;2023-04-29T16:18:41;19.70;74.20
21169;DHT22;10742;51.816;8.662;2023-04-29T16:21:43;19.70;73.60
21169;DHT22;10742;51.816;8.662;2023-04-29T16:24:46;19.70;73.40
21169;DHT22;10742;51.816;8.662;2023-04-29T16:27:50;19.70;73.20
21169;DHT22;10742;51.816;8.662;2023-04-29T16:30:53;19.70;73.40
21169;DHT22;10742;51.816;8.662;2023-04-29T16:33:55;19.70;73.30
21169;DHT22;10742;51.816;8.662;2023-04-29T16:36:58;19.70;72.80
21169;DHT22;10742;51.816;8.662;2023-04-29T16:40:01;19.60;72.30
21169;DHT22;10742;51.816;8.662;2023-04-29T16:43:03;19.60;71.90
21169;DHT22;10742;51.816;8.662;2023-04-29T16:46:06;19.60;72.80
21169;DHT22;10742;51.816;8.662;2023-04-29T16:49:08;19.50;71.90
21169;DHT22;10742;51.816;8.662;2023-04-29T16:52:11;19.60;71.90
21169;DHT22;10742;51.816;8.662;2023-04-29T16:55:14;19.50;71.70
21169;DHT22;10742;51.816;8.662;2023-04-29T16:58:16;19.50;71.60
21169;DHT22;10742;51.816;8.662;2023-04-29T17:01:19;19.50;71.30
21169;DHT22;10742;51.816;8.662;2023-04-29T17:04:22;19.50;71.20
21169;DHT22;10742;51.816;8.662;2023-04-29T17:07:24;19.40;71.20
21169;DHT22;10742;51.816;8.662;2023-04-29T17:10:27;19.40;71.80
21169;DHT22;10742;51.816;8.662;2023-04-29T17:13:30;19.30;71.00
21169;DHT22;10742;51.816;8.662;2023-04-29T17:16:32;19.30;70.90
21169;DHT22;10742;51.816;8.662;2023-04-29T17:19:35;19.20;71.10
21169;DHT22;10742;51.816;8.662;2023-04-29T17:22:37;19.20;71.30
21169;DHT22;10742;51.816;8.662;2023-04-29T17:25:41;19.10;71.50
21169;DHT22;10742;51.816;8.662;2023-04-29T17:28:44;19.10;71.60
21169;DHT22;10742;51.816;8.662;2023-04-29T17:31:47;19.00;71.60
21169;DHT22;10742;51.816;8.662;2023-04-29T17:34:55;19.00;71.60
21169;DHT22;10742;51.816;8.662;2023-04-29T17:37:59;18.90;71.80
21169;DHT22;10742;51.816;8.662;2023-04-29T17:41:01;19.00;71.90
21169;DHT22;10742;51.816;8.662;2023-04-29T17:44:04;19.00;72.70
21169;DHT22;10742;51.816;8.662;2023-04-29T17:47:09;19.00;73.20
21169;DHT22;10742;51.816;8.662;2023-04-29T17:50:12;19.00;73.40
21169;DHT22;10742;51.816;8.662;2023-04-29T17:53:15;19.10;73.40
21169;DHT22;10742;51.816;8.662;2023-04-29T17:56:17;19.10;73.70
21169;DHT22;10742;51.816;8.662;2023-04-29T17:59:20;19.20;73.90
21169;DHT22;10742;51.816;8.662;2023-04-29T18:02:22;19.20;73.40
21169;DHT22;10742;51.816;8.662;2023-04-29T18:05:25;19.30;73.50
21169;DHT22;10742;51.816;8.662;2023-04-29T18:08:27;19.30;73.10
21169;DHT22;10742;51.816;8.662;2023-04-29T18:11:30;19.40;72.70
21169;DHT22;10742;51.816;8.662;2023-04-29T18:14:33;19.40;72.40
21169;DHT22;10742;51.816;8.662;2023-04-29T18:17:35;19.40;72.00
21169;DHT22;10742;51.816;8.662;2023-04-29T18:20:41;19.40;72.10
21169;DHT22;10742;51.816;8.662;2023-04-29T18:23:44;19.40;71.70
21169;DHT22;10742;51.816;8.662;2023-04-29T18:26:47;19.40;71.90
21169;DHT22;10742;51.816;8.662;2023-04-29T18:29:49;19.40;72.10
21169;DHT22;10742;51.816;8.662;2023-04-29T18:32:52;19.30;71.90
21169;DHT22;10742;51.816;8.662;2023-04-29T18:35:55;19.30;71.80
21169;DHT22;10742;51.816;8.662;2023-04-29T18:38:57;19.30;71.90
21169;DHT22;10742;51.816;8.662;2023-04-29T18:42:00;19.30;71.80
21169;DHT22;10742;51.816;8.662;2023-04-29T18:45:04;19.20;72.10
21169;DHT22;10742;51.816;8.662;2023-04-29T18:48:07;19.20;71.90
21169;DHT22;10742;51.816;8.662;2023-04-29T18:51:10;19.20;71.80
21169;DHT22;10742;51.816;8.662;2023-04-29T18:54:14;19.10;71.60
21169;DHT22;10742;51.816;8.662;2023-04-29T18:57:17;19.10;71.50
21169;DHT22;10742;51.816;8.662;2023-04-29T19:00:20;19.00;71.70
21169;DHT22;10742;51.816;8.662;2023-04-29T19:03:23;19.00;71.60
21169;DHT22;10742;51.816;8.662;2023-04-29T19:06:25;18.90;71.70
21169;DHT22;10742;51.816;8.662;2023-04-29T19:09:28;18.80;71.80
21169;DHT22;10742;51.816;8.662;2023-04-29T19:12:33;18.70;71.90
21169;DHT22;10742;51.816;8.662;2023-04-29T19:15:36;18.70;71.90
21169;DHT22;10742;51.816;8.662;2023-04-29T19:18:38;18.60;71.90
21169;DHT22;10742;51.816;8.662;2023-04-29T19:21:42;18.50;72.00
21169;DHT22;10742;51.816;8.662;2023-04-29T19:24:45;18.40;72.20
21169;DHT22;10742;51.816;8.662;2023-04-29T19:27:47;18.30;72.40
21169;DHT22;10742;51.816;8.662;2023-04-29T19:30:50;18.20;72.50
21169;DHT22;10742;51.816;8.662;2023-04-29T19:33:53;18.10;72.60
21169;DHT22;10742;51.816;8.662;2023-04-29T19:36:55;18.00;73.00
21169;DHT22;10742;51.816;8.662;2023-04-29T19:39:58;17.90;73.10
21169;DHT22;10742;51.816;8.662;2023-04-29T19:43:00;17.80;73.30